Time;durP1;ratioP1;P1;durP2;ratioP2;P2;SDS_P1;SDS_P2;PMS_P1;PMS_P2;Temp;Humidity;BMP_temperature;BMP_pressure;BME280_temperature;BME280_humidity;BME280_pressure;Samples;Min_cycle;Max_cycle;Signal;HPM_P1;HPM_P2
2022/05/17 00:00:17;;;;;;;18.98;11.75;;;14.90;99.90;;;;;;4959715;28;88327;-37
2022/05/17 00:02:43;;;;;;;16.00;12.25;;;14.90;99.90;;;;;;4958247;28;91139;-34
2022/05/17 00:05:09;;;;;;;25.52;14.57;;;14.80;99.90;;;;;;4959432;28;89672;-38
2022/05/17 00:07:34;;;;;;;14.88;12.40;;;14.80;99.90;;;;;;4958848;28;89590;-40
2022/05/17 00:10:00;;;;;;;19.73;12.90;;;14.80;99.90;;;;;;4959134;28;89717;-36
2022/05/17 00:12:25;;;;;;;14.38;12.10;;;14.80;99.90;;;;;;4959391;28;90875;-36
2022/05/17 00:14:51;;;;;;;19.92;12.25;;;14.70;99.90;;;;;;4958432;28;89774;-34
2022/05/17 00:17:17;;;;;;;17.88;11.68;;;14.70;99.90;;;;;;4959327;28;89763;-39
2022/05/17 00:19:42;;;;;;;19.25;12.70;;;14.70;99.90;;;;;;4958539;28;90287;-36
2022/05/17 00:22:08;;;;;;;20.00;12.77;;;14.70;99.90;;;;;;4958769;28;90314;-40
2022/05/17 00:24:34;;;;;;;18.60;11.80;;;14.70;99.90;;;;;;4958815;28;89039;-35
2022/05/17 00:26:59;;;;;;;17.60;12.05;;;14.60;99.90;;;;;;4957958;28;89818;-36
2022/05/17 00:29:25;;;;;;;18.67;10.75;;;14.60;99.90;;;;;;4959379;28;89278;-39
2022/05/17 00:31:51;;;;;;;13.90;12.52;;;14.60;99.90;;;;;;4958344;28;90635;-38
2022/05/17 00:34:16;;;;;;;23.17;13.63;;;14.60;99.90;;;;;;4958574;28;89532;-38
2022/05/17 00:36:42;;;;;;;18.52;13.30;;;14.50;99.90;;;;;;4958152;28;90231;-35
2022/05/17 00:39:08;;;;;;;16.45;12.38;;;14.50;99.90;;;;;;4958815;28;89138;-38
2022/05/17 00:41:33;;;;;;;15.55;12.32;;;14.50;99.90;;;;;;4958893;28;90016;-37
2022/05/17 00:47:08;;;;;;;15.57;12.55;;;14.50;99.90;;;;;;4956597;28;88975;-39
2022/05/17 00:49:42;;;;;;;20.63;14.25;;;14.40;99.90;;;;;;4958276;28;88270;-37
2022/05/17 00:52:51;;;;;;;15.10;12.82;;;14.40;99.90;;;;;;4958633;28;90436;-36
2022/05/17 00:55:28;;;;;;;19.63;13.65;;;14.40;99.90;;;;;;4947680;28;89566;-36
2022/05/17 00:58:07;;;;;;;17.85;14.32;;;14.40;99.90;;;;;;4950879;28;89504;-39
2022/05/17 01:00:37;;;;;;;20.23;13.77;;;14.40;99.90;;;;;;4939422;28;89085;-36
2022/05/17 01:03:07;;;;;;;17.95;11.77;;;14.40;99.90;;;;;;4939117;28;90429;-36
2022/05/17 01:05:46;;;;;;;18.85;13.98;;;14.40;99.90;;;;;;4939417;28;90314;-39
2022/05/17 01:08:16;;;;;;;24.52;13.85;;;14.40;99.90;;;;;;4938973;28;90095;-34
2022/05/17 01:10:41;;;;;;;20.45;14.55;;;14.40;99.90;;;;;;4938607;28;90493;-35
2022/05/17 01:15:52;;;;;;;23.45;13.20;;;14.30;99.90;;;;;;4942869;28;89981;-37
2022/05/17 01:18:18;;;;;;;20.30;13.93;;;14.30;99.90;;;;;;4941799;28;91418;-38
2022/05/17 01:20:43;;;;;;;16.55;13.18;;;14.30;99.90;;;;;;4942179;28;89731;-34
2022/05/17 01:23:09;;;;;;;19.05;13.18;;;14.30;99.90;;;;;;4941570;28;90201;-36
2022/05/17 01:25:35;;;;;;;19.63;13.27;;;14.30;99.90;;;;;;4941427;28;90136;-37
2022/05/17 01:28:22;;;;;;;18.52;14.35;;;14.30;99.90;;;;;;4941551;28;90400;-35
2022/05/17 01:30:48;;;;;;;21.77;13.85;;;14.30;99.90;;;;;;4942717;28;89906;-34
2022/05/17 01:33:16;;;;;;;15.48;12.15;;;14.30;99.90;;;;;;4941644;28;89978;-38
2022/05/17 01:35:42;;;;;;;21.88;13.07;;;14.30;99.90;;;;;;4940554;28;91151;-37
2022/05/17 01:38:08;;;;;;;22.00;14.38;;;14.20;99.90;;;;;;4941486;28;90431;-35
2022/05/17 01:40:34;;;;;;;20.52;13.88;;;14.20;99.90;;;;;;4941782;28;89672;-34
2022/05/17 01:42:59;;;;;;;26.13;14.95;;;14.20;99.90;;;;;;4941483;28;91317;-34
2022/05/17 01:45:25;;;;;;;18.73;11.90;;;14.20;99.90;;;;;;4941420;28;92632;-39
2022/05/17 01:47:50;;;;;;;18.10;13.32;;;14.10;99.90;;;;;;4941208;28;88494;-39
2022/05/17 01:50:16;;;;;;;22.30;12.93;;;14.10;99.90;;;;;;4942092;28;88927;-36
2022/05/17 01:52:44;;;;;;;18.85;12.77;;;14.10;99.90;;;;;;4941143;28;91229;-35
2022/05/17 01:55:10;;;;;;;22.93;12.90;;;14.10;99.90;;;;;;4942031;28;89175;-35
2022/05/17 01:57:35;;;;;;;20.65;12.55;;;14.10;99.90;;;;;;4941327;28;89547;-34
2022/05/17 02:00:01;;;;;;;16.52;11.82;;;14.10;99.90;;;;;;4940691;28;89272;-36
2022/05/17 02:02:27;;;;;;;17.80;12.35;;;14.10;99.90;;;;;;4941275;28;90016;-36
2022/05/17 02:04:52;;;;;;;23.25;11.60;;;14.10;99.90;;;;;;4940859;28;93104;-35
2022/05/17 02:07:18;;;;;;;14.40;11.45;;;14.10;99.90;;;;;;4941439;28;93376;-39
2022/05/17 02:09:44;;;;;;;16.42;10.73;;;14.00;99.90;;;;;;4941565;28;89297;-36
2022/05/17 02:12:10;;;;;;;16.88;11.57;;;14.00;99.90;;;;;;4941039;28;90270;-39
2022/05/17 02:14:35;;;;;;;16.80;12.18;;;13.90;99.90;;;;;;4941364;28;90056;-35
2022/05/17 02:17:02;;;;;;;18.48;11.77;;;13.90;99.90;;;;;;4941015;28;89366;-37
2022/05/17 02:19:30;;;;;;;20.98;13.02;;;13.90;99.90;;;;;;4941607;28;88342;-37
2022/05/17 02:21:55;;;;;;;18.00;11.70;;;13.90;99.90;;;;;;4941048;28;90307;-37
2022/05/17 02:24:22;;;;;;;16.10;12.10;;;13.90;99.90;;;;;;4939166;28;94496;-36
2022/05/17 02:26:48;;;;;;;21.85;12.98;;;13.90;99.90;;;;;;4940289;28;90476;-38
2022/05/17 02:29:14;;;;;;;19.60;12.10;;;13.90;99.90;;;;;;4941643;28;90072;-34
2022/05/17 02:31:40;;;;;;;16.40;11.63;;;13.80;99.90;;;;;;4940759;28;89053;-35
2022/05/17 02:34:05;;;;;;;21.83;12.63;;;13.80;99.90;;;;;;4940608;28;89797;-38
2022/05/17 02:36:31;;;;;;;14.55;10.52;;;13.90;99.90;;;;;;4940340;28;89481;-34
2022/05/17 02:38:56;;;;;;;18.25;11.27;;;13.80;99.90;;;;;;4940428;28;89758;-39
2022/05/17 02:41:23;;;;;;;14.82;10.77;;;13.80;99.90;;;;;;4941002;28;89809;-35
2022/05/17 02:43:49;;;;;;;18.60;11.98;;;13.80;99.90;;;;;;4940108;28;89619;-36
2022/05/17 02:46:15;;;;;;;17.85;10.15;;;13.80;99.90;;;;;;4940621;28;89857;-37
2022/05/17 02:48:41;;;;;;;17.83;12.23;;;13.80;99.90;;;;;;4939465;28;89099;-38
2022/05/17 02:51:16;;;;;;;13.63;10.98;;;13.80;99.90;;;;;;4941019;28;90260;-35
2022/05/17 02:53:42;;;;;;;18.83;12.45;;;13.80;99.90;;;;;;4940766;28;89671;-34
2022/05/17 02:56:08;;;;;;;17.73;11.48;;;13.80;99.90;;;;;;4940903;28;89794;-34
2022/05/17 02:58:34;;;;;;;21.73;11.15;;;13.70;99.90;;;;;;4940723;28;90070;-40
2022/05/17 03:01:00;;;;;;;19.30;12.25;;;13.70;99.90;;;;;;4940534;28;90681;-33
2022/05/17 03:03:26;;;;;;;20.35;11.18;;;13.70;99.90;;;;;;4939819;28;89609;-40
2022/05/17 03:05:52;;;;;;;18.70;11.88;;;13.70;99.90;;;;;;4940976;28;89858;-37
2022/05/17 03:08:18;;;;;;;15.55;10.63;;;13.60;99.90;;;;;;4939448;28;88301;-37
2022/05/17 03:10:43;;;;;;;22.90;12.88;;;13.60;99.90;;;;;;4940738;28;90444;-36
2022/05/17 03:13:10;;;;;;;18.00;11.40;;;13.60;99.90;;;;;;4939780;28;90926;-36
2022/05/17 03:15:36;;;;;;;20.52;11.95;;;13.60;99.90;;;;;;4939766;28;90092;-35
2022/05/17 03:18:02;;;;;;;14.13;11.60;;;13.60;99.90;;;;;;4940790;28;89918;-37
2022/05/17 03:20:28;;;;;;;19.77;11.13;;;13.60;99.90;;;;;;4940279;28;89275;-35
2022/05/17 03:22:53;;;;;;;19.77;10.95;;;13.50;99.90;;;;;;4939781;28;89867;-40
2022/05/17 03:25:19;;;;;;;19.77;11.85;;;13.50;99.90;;;;;;4939831;28;89927;-37
2022/05/17 03:27:44;;;;;;;26.45;11.73;;;13.50;99.90;;;;;;4939536;28;89590;-39
2022/05/17 03:30:11;;;;;;;13.85;10.43;;;13.50;99.90;;;;;;4941181;28;94814;-36
2022/05/17 03:32:36;;;;;;;20.15;10.70;;;13.50;99.90;;;;;;4939364;28;90251;-38
2022/05/17 03:35:02;;;;;;;17.98;11.68;;;13.40;99.90;;;;;;4940026;28;90954;-35
2022/05/17 03:37:28;;;;;;;15.75;12.32;;;13.50;99.90;;;;;;4937570;28;89935;-38
2022/05/17 03:39:54;;;;;;;22.23;11.63;;;13.50;99.90;;;;;;4939599;28;92538;-39
2022/05/17 03:42:19;;;;;;;15.93;10.98;;;13.40;99.90;;;;;;4940269;28;88839;-35
2022/05/17 03:44:45;;;;;;;18.10;11.10;;;13.40;99.90;;;;;;4939075;28;89462;-38
2022/05/17 03:47:11;;;;;;;18.83;10.13;;;13.40;99.90;;;;;;4940177;28;89480;-36
2022/05/17 03:49:38;;;;;;;15.93;12.00;;;13.40;99.90;;;;;;4939257;28;89415;-35
2022/05/17 03:52:05;;;;;;;24.58;11.13;;;13.40;99.90;;;;;;4939705;28;88823;-34
2022/05/17 03:54:31;;;;;;;19.33;11.05;;;13.40;99.90;;;;;;4940712;28;89490;-37
2022/05/17 03:56:56;;;;;;;19.17;10.35;;;13.40;99.90;;;;;;4939952;28;88869;-36
2022/05/17 03:59:22;;;;;;;24.48;11.75;;;13.40;99.90;;;;;;4939334;28;93754;-37
2022/05/17 04:01:48;;;;;;;20.92;10.43;;;13.40;99.90;;;;;;4939262;28;90553;-36
2022/05/17 04:04:13;;;;;;;14.32;11.10;;;13.40;99.90;;;;;;4939018;28;89556;-35
2022/05/17 04:06:39;;;;;;;17.15;11.93;;;13.40;99.90;;;;;;4939795;28;89876;-36
2022/05/17 04:09:05;;;;;;;18.20;11.77;;;13.50;99.90;;;;;;4939430;28;90937;-37
2022/05/17 04:11:32;;;;;;;19.60;11.90;;;13.50;99.90;;;;;;4939405;28;89428;-38
2022/05/17 04:13:58;;;;;;;19.83;10.85;;;13.50;99.90;;;;;;4939186;28;89481;-34
2022/05/17 04:16:23;;;;;;;19.45;11.18;;;13.50;99.90;;;;;;4939275;28;89069;-36
2022/05/17 04:18:49;;;;;;;19.27;11.88;;;13.60;99.90;;;;;;4922003;28;90455;-38
2022/05/17 04:21:14;;;;;;;21.55;11.13;;;13.60;99.90;;;;;;4939213;28;89913;-38
2022/05/17 04:23:41;;;;;;;15.55;10.85;;;13.70;99.90;;;;;;4939222;28;90028;-39
2022/05/17 04:26:07;;;;;;;21.40;10.77;;;13.70;99.90;;;;;;4939301;28;88797;-34
2022/05/17 04:28:33;;;;;;;25.95;10.32;;;13.90;99.90;;;;;;4939016;28;89373;-35
2022/05/17 04:30:58;;;;;;;25.77;13.45;;;14.20;99.90;;;;;;4939431;28;90030;-37
2022/05/17 04:33:24;;;;;;;23.17;12.02;;;14.60;99.90;;;;;;4939166;28;89349;-36
2022/05/17 04:35:51;;;;;;;12.98;9.55;;;14.90;99.90;;;;;;4939399;28;87681;-35
2022/05/17 04:38:17;;;;;;;18.77;10.63;;;14.70;99.90;;;;;;4940198;28;90355;-34
2022/05/17 04:40:43;;;;;;;13.38;9.30;;;14.60;99.90;;;;;;4938150;28;89648;-38
2022/05/17 04:43:09;;;;;;;19.58;10.48;;;14.50;99.90;;;;;;4940026;28;89518;-35
2022/05/17 04:45:35;;;;;;;16.17;12.18;;;14.50;99.90;;;;;;4939363;28;88060;-36
2022/05/17 04:48:02;;;;;;;17.38;10.73;;;14.70;99.90;;;;;;4939137;28;89888;-37
2022/05/17 04:50:29;;;;;;;14.00;10.83;;;14.80;99.90;;;;;;4941976;28;90280;-37
2022/05/17 04:52:55;;;;;;;17.77;10.90;;;15.00;99.90;;;;;;4942407;28;91631;-35
2022/05/17 04:55:21;;;;;;;22.40;11.30;;;15.10;99.90;;;;;;4942191;28;88356;-35
2022/05/17 04:57:47;;;;;;;16.92;10.50;;;15.10;99.90;;;;;;4942503;28;90370;-36
2022/05/17 05:00:17;;;;;;;19.70;10.57;;;15.20;99.90;;;;;;4941888;28;89686;-36
2022/05/17 05:02:42;;;;;;;13.65;9.88;;;15.40;99.90;;;;;;4941982;28;89902;-35
2022/05/17 05:05:08;;;;;;;12.40;10.20;;;15.40;99.90;;;;;;4942790;28;90601;-35
2022/05/17 05:07:34;;;;;;;13.90;9.20;;;15.50;99.90;;;;;;4942872;28;89986;-34
2022/05/17 05:10:00;;;;;;;11.38;8.38;;;15.50;99.90;;;;;;4943184;28;89620;-36
2022/05/17 05:12:25;;;;;;;17.23;10.73;;;15.50;99.90;;;;;;4942780;28;89730;-37
2022/05/17 05:14:51;;;;;;;12.68;9.68;;;15.30;99.90;;;;;;4941525;28;90183;-37
2022/05/17 05:17:17;;;;;;;16.40;8.57;;;15.30;99.90;;;;;;4942219;28;90133;-39
2022/05/17 05:19:42;;;;;;;13.80;9.50;;;15.30;99.90;;;;;;4942647;28;89613;-36
2022/05/17 05:22:08;;;;;;;18.48;9.85;;;15.20;99.90;;;;;;4942536;28;90251;-36
2022/05/17 05:24:34;;;;;;;11.85;9.25;;;15.30;99.90;;;;;;4943134;28;89903;-34
2022/05/17 05:26:59;;;;;;;16.90;9.00;;;15.40;99.90;;;;;;4942365;28;90207;-35
2022/05/17 05:29:26;;;;;;;17.38;10.07;;;15.50;99.90;;;;;;4924415;28;89551;-37
2022/05/17 05:31:51;;;;;;;16.42;8.73;;;15.60;99.90;;;;;;4941787;28;90005;-36
2022/05/17 05:34:17;;;;;;;14.35;8.20;;;15.60;99.90;;;;;;4942360;28;89439;-40
2022/05/17 05:36:43;;;;;;;15.05;9.40;;;15.80;99.90;;;;;;4942498;28;90123;-35
2022/05/17 05:39:09;;;;;;;11.68;9.32;;;15.80;99.90;;;;;;4941042;28;90127;-36
2022/05/17 05:41:35;;;;;;;17.40;8.73;;;15.90;99.90;;;;;;4942396;28;94625;-35
2022/05/17 05:44:00;;;;;;;11.98;8.35;;;15.90;99.90;;;;;;4943038;28;90435;-37
2022/05/17 05:46:27;;;;;;;20.38;9.88;;;16.00;99.90;;;;;;4941946;28;90321;-37
2022/05/17 05:48:53;;;;;;;15.32;10.10;;;15.90;99.90;;;;;;4942098;28;89751;-36
2022/05/17 05:51:19;;;;;;;14.40;9.40;;;16.20;99.90;;;;;;4941057;28;90349;-35
2022/05/17 05:53:44;;;;;;;14.43;9.20;;;16.40;99.90;;;;;;4941830;28;89513;-40
2022/05/17 05:56:11;;;;;;;14.43;8.80;;;16.50;99.90;;;;;;4942670;28;90443;-36
2022/05/17 05:58:40;;;;;;;22.08;9.77;;;16.70;99.90;;;;;;4941694;28;89800;-37
2022/05/17 06:01:06;;;;;;;12.90;7.78;;;16.90;99.90;;;;;;4941197;28;89684;-39
2022/05/17 06:03:33;;;;;;;13.63;9.55;;;17.00;99.90;;;;;;4942220;28;89534;-35
2022/05/17 06:05:59;;;;;;;17.60;8.60;;;17.20;99.90;;;;;;4941543;28;90194;-36
2022/05/17 06:08:25;;;;;;;15.07;9.77;;;17.30;99.90;;;;;;4941426;28;89452;-37
2022/05/17 06:10:51;;;;;;;12.55;9.02;;;17.30;99.90;;;;;;4950602;28;89732;-36
2022/05/17 06:13:18;;;;;;;15.00;8.50;;;17.60;99.90;;;;;;4960535;28;87975;-37
2022/05/17 06:15:46;;;;;;;22.63;8.88;;;17.70;99.90;;;;;;4960187;28;90175;-35
2022/05/17 06:18:12;;;;;;;12.95;9.25;;;17.70;99.90;;;;;;4960410;28;90191;-38
2022/05/17 06:20:38;;;;;;;13.38;7.70;;;17.80;99.90;;;;;;4961044;28;90496;-38
2022/05/17 06:23:05;;;;;;;11.40;7.07;;;17.90;99.90;;;;;;4960892;28;88779;-37
2022/05/17 06:25:32;;;;;;;11.00;7.40;;;17.70;99.90;;;;;;4961591;28;90324;-38
2022/05/17 06:27:58;;;;;;;12.23;6.72;;;17.60;99.90;;;;;;4960131;28;91266;-37
2022/05/17 06:30:24;;;;;;;15.60;7.10;;;17.60;99.90;;;;;;4960174;28;90292;-34
2022/05/17 06:32:51;;;;;;;8.68;6.18;;;17.80;99.90;;;;;;4960659;28;88856;-37
2022/05/17 06:35:17;;;;;;;15.38;7.35;;;18.00;99.90;;;;;;4961206;28;90315;-38
2022/05/17 06:37:43;;;;;;;7.53;6.60;;;18.00;99.90;;;;;;4942504;28;89714;-39
2022/05/17 06:40:10;;;;;;;16.90;7.72;;;18.10;99.90;;;;;;4961697;28;89456;-34
2022/05/17 06:42:36;;;;;;;16.27;7.85;;;18.20;99.90;;;;;;4960518;28;87876;-38
2022/05/17 06:45:02;;;;;;;14.68;6.70;;;18.40;99.90;;;;;;4960790;28;89547;-34
2022/05/17 06:47:28;;;;;;;12.20;6.93;;;18.50;99.90;;;;;;4942859;28;89803;-36
2022/05/17 06:49:54;;;;;;;17.67;8.02;;;18.70;99.90;;;;;;4959393;28;93153;-38
2022/05/17 06:52:23;;;;;;;11.50;6.55;;;18.80;99.90;;;;;;4960130;28;88092;-36
2022/05/17 06:54:49;;;;;;;10.27;7.03;;;18.80;99.90;;;;;;4957169;28;91042;-36
2022/05/17 06:57:16;;;;;;;9.73;6.63;;;18.70;99.90;;;;;;4958090;28;89873;-37
2022/05/17 06:59:44;;;;;;;12.32;6.38;;;18.80;99.90;;;;;;4958187;28;89299;-36
2022/05/17 07:02:10;;;;;;;15.00;7.43;;;19.00;99.90;;;;;;4958936;28;87966;-39
2022/05/17 07:04:36;;;;;;;16.23;7.78;;;19.20;99.90;;;;;;4958103;28;90639;-34
2022/05/17 07:07:03;;;;;;;12.95;7.10;;;19.30;99.90;;;;;;4957923;28;89716;-36
2022/05/17 07:09:29;;;;;;;13.88;6.40;;;19.30;99.90;;;;;;4961858;28;88960;-37
2022/05/17 07:14:41;;;;;;;10.10;7.65;;;19.60;99.90;;;;;;4957426;28;89831;-34
2022/05/17 07:17:18;;;;;;;14.02;7.28;;;19.80;99.90;;;;;;4959683;28;90799;-36
2022/05/17 07:19:44;;;;;;;14.55;6.95;;;19.70;99.90;;;;;;4958255;28;90020;-36
2022/05/17 07:22:11;;;;;;;16.17;8.70;;;20.10;99.90;;;;;;4958732;28;90229;-37
2022/05/17 07:24:36;;;;;;;10.02;6.47;;;19.90;99.90;;;;;;4958429;28;90354;-36
2022/05/17 07:27:03;;;;;;;10.00;6.60;;;20.10;99.90;;;;;;4959071;28;89682;-35
2022/05/17 07:29:29;;;;;;;12.05;7.10;;;20.20;99.90;;;;;;4959377;28;88546;-39
2022/05/17 07:31:54;;;;;;;8.82;6.28;;;20.20;99.90;;;;;;4960568;28;88392;-36
2022/05/17 07:34:21;;;;;;;7.05;5.72;;;20.60;99.90;;;;;;4959816;28;89301;-36
2022/05/17 07:36:48;;;;;;;8.88;6.90;;;20.70;99.90;;;;;;4959494;28;89658;-37
2022/05/17 07:39:14;;;;;;;14.32;6.00;;;20.80;99.90;;;;;;4959907;28;89973;-36
2022/05/17 07:41:41;;;;;;;10.60;6.07;;;20.90;99.90;;;;;;4959133;28;89774;-40
2022/05/17 07:44:07;;;;;;;11.25;6.10;;;21.00;99.90;;;;;;4959882;28;89892;-37
2022/05/17 07:46:33;;;;;;;8.63;5.57;;;21.30;99.90;;;;;;4960245;28;88901;-36
2022/05/17 07:48:59;;;;;;;12.05;6.47;;;21.30;99.90;;;;;;4960014;28;90543;-37
2022/05/17 07:51:25;;;;;;;11.15;6.43;;;21.20;99.90;;;;;;4959794;28;89205;-37
2022/05/17 07:53:51;;;;;;;8.63;5.50;;;21.00;99.90;;;;;;4959685;28;90319;-36
2022/05/17 07:56:16;;;;;;;7.45;5.05;;;20.80;99.90;;;;;;4959452;28;89683;-36
2022/05/17 07:58:42;;;;;;;8.05;5.55;;;21.00;99.90;;;;;;4959627;28;90265;-34
2022/05/17 08:01:08;;;;;;;11.82;7.65;;;21.60;99.90;;;;;;4959907;28;88209;-35
2022/05/17 08:03:34;;;;;;;6.15;5.55;;;21.30;99.90;;;;;;4959599;28;90237;-37
2022/05/17 08:06:00;;;;;;;10.77;6.25;;;21.60;99.90;;;;;;4959235;28;91095;-35
2022/05/17 08:08:26;;;;;;;10.70;5.68;;;21.60;99.90;;;;;;4959072;28;89624;-37
2022/05/17 08:10:52;;;;;;;8.27;4.40;;;21.50;99.90;;;;;;4960109;28;88879;-38
2022/05/17 08:13:19;;;;;;;11.52;5.13;;;21.30;99.90;;;;;;4959278;28;90587;-38
2022/05/17 08:15:45;;;;;;;7.18;4.85;;;21.40;99.90;;;;;;4959097;28;89788;-35
2022/05/17 08:18:11;;;;;;;10.45;5.28;;;21.50;99.90;;;;;;4959930;28;90299;-35
2022/05/17 08:20:37;;;;;;;10.75;5.65;;;21.30;99.90;;;;;;4959312;28;87904;-35
2022/05/17 08:23:04;;;;;;;11.68;5.60;;;21.70;99.90;;;;;;4959744;28;90185;-36
2022/05/17 08:28:15;;;;;;;11.48;6.45;;;21.90;99.90;;;;;;4962633;28;89577;-35
2022/05/17 08:30:41;;;;;;;13.45;5.45;;;21.90;99.90;;;;;;4962689;28;89147;-39
2022/05/17 08:33:16;;;;;;;8.02;5.05;;;21.70;99.90;;;;;;4963213;28;90203;-37
2022/05/17 08:35:57;;;;;;;13.85;5.75;;;22.00;99.90;;;;;;4961973;28;90880;-36
2022/05/17 08:38:57;;;;;;;12.50;4.82;;;22.60;99.90;;;;;;4963000;28;88285;-36
2022/05/17 08:41:22;;;;;;;12.73;5.35;;;22.60;99.90;;;;;;4953763;28;88361;-35
2022/05/17 08:44:00;;;;;;;10.18;4.82;;;22.50;99.90;;;;;;4962485;28;90092;-36
2022/05/17 08:46:50;;;;;;;9.00;4.43;;;22.20;99.90;;;;;;4961827;28;89953;-39
2022/05/17 08:49:20;;;;;;;13.73;4.80;;;22.40;99.90;;;;;;4962141;28;89499;-35
2022/05/17 08:51:49;;;;;;;11.75;4.55;;;22.50;99.90;;;;;;4962822;28;89445;-37
2022/05/17 08:54:31;;;;;;;9.32;4.82;;;22.50;99.90;;;;;;4962522;28;90478;-36
2022/05/17 08:57:43;;;;;;;11.68;5.93;;;22.90;99.90;;;;;;4961812;28;91529;-35
2022/05/17 09:00:16;;;;;;;8.40;4.43;;;22.80;99.90;;;;;;4957359;28;90891;-38
2022/05/17 09:02:52;;;;;;;6.93;4.65;;;22.80;99.90;;;;;;4962184;28;89135;-36
2022/05/17 09:05:33;;;;;;;9.02;5.50;;;22.90;99.90;;;;;;4962193;28;90307;-39
2022/05/17 09:08:33;;;;;;;8.38;3.78;;;22.80;99.90;;;;;;4961866;28;89669;-36
2022/05/17 09:11:25;;;;;;;5.70;2.92;;;23.60;99.90;;;;;;4962354;28;90495;-36
2022/05/17 09:14:07;;;;;;;8.77;3.50;;;23.50;99.90;;;;;;4962778;28;88865;-35
2022/05/17 09:16:37;;;;;;;4.55;3.42;;;23.00;99.90;;;;;;4962241;28;90652;-38
2022/05/17 09:19:02;;;;;;;11.82;4.65;;;23.40;99.90;;;;;;4961553;28;89766;-35
2022/05/17 09:21:36;;;;;;;6.63;2.65;;;23.60;99.90;;;;;;4962844;28;89391;-36
2022/05/17 09:24:08;;;;;;;6.88;3.25;;;23.80;99.90;;;;;;4961994;28;90107;-36
2022/05/17 09:26:34;;;;;;;10.38;3.17;;;23.70;99.90;;;;;;4962037;28;91754;-36
2022/05/17 09:29:03;;;;;;;5.30;2.72;;;23.40;99.90;;;;;;4961553;28;91195;-37
2022/05/17 09:31:35;;;;;;;5.57;3.05;;;23.60;99.90;;;;;;4961591;28;89645;-36
2022/05/17 09:34:08;;;;;;;11.05;3.22;;;23.70;99.90;;;;;;4961540;28;88677;-38
2022/05/17 09:36:48;;;;;;;6.13;2.75;;;24.30;97.70;;;;;;4961942;28;89705;-36
2022/05/17 09:39:22;;;;;;;6.50;3.03;;;23.60;99.90;;;;;;4962567;28;90181;-36
2022/05/17 09:41:48;;;;;;;3.00;2.28;;;23.60;96.10;;;;;;4961804;28;89569;-37
2022/05/17 09:44:21;;;;;;;6.28;2.78;;;23.70;99.90;;;;;;4961937;28;88245;-37
2022/05/17 09:46:49;;;;;;;4.45;2.78;;;23.70;99.90;;;;;;4961038;28;90406;-36
2022/05/17 09:52:38;;;;;;;2.15;1.80;;;24.00;97.20;;;;;;4961967;28;90376;-39
2022/05/17 09:55:21;;;;;;;5.55;2.53;;;23.90;99.90;;;;;;4961874;28;89987;-36
2022/05/17 09:58:08;;;;;;;3.33;2.35;;;24.20;98.40;;;;;;4961604;28;90012;-36
2022/05/17 10:00:41;;;;;;;4.25;2.47;;;23.90;96.10;;;;;;4961704;28;90098;-35
2022/05/17 10:03:29;;;;;;;5.28;2.08;;;23.70;97.70;;;;;;4961644;28;90221;-38
2022/05/17 10:06:13;;;;;;;5.63;2.85;;;23.90;99.90;;;;;;4961179;28;89608;-36
2022/05/17 10:09:05;;;;;;;7.32;2.88;;;23.90;91.00;;;;;;4961764;28;90370;-36
2022/05/17 10:11:58;;;;;;;6.47;3.40;;;23.60;93.10;;;;;;4961202;28;90118;-36
2022/05/17 10:14:33;;;;;;;3.83;1.88;;;23.60;93.10;;;;;;4941593;28;90643;-37
2022/05/17 10:17:19;;;;;;;6.70;3.17;;;23.50;94.10;;;;;;4960558;28;90178;-36
2022/05/17 10:19:58;;;;;;;8.95;2.38;;;23.80;99.90;;;;;;4961213;28;90210;-36
2022/05/17 10:22:44;;;;;;;2.95;2.35;;;23.40;95.10;;;;;;4962066;28;89618;-37
2022/05/17 10:25:22;;;;;;;8.48;2.92;;;23.40;97.00;;;;;;4960871;28;89733;-34
2022/05/17 10:28:14;;;;;;;2.45;2.15;;;23.60;96.00;;;;;;4961365;28;89471;-36
2022/05/17 10:30:51;;;;;;;5.63;2.50;;;23.80;92.40;;;;;;4961283;28;90503;-37
2022/05/17 10:33:35;;;;;;;6.97;2.70;;;23.10;91.50;;;;;;4961589;28;89872;-36
2022/05/17 10:36:10;;;;;;;9.18;2.47;;;23.20;97.60;;;;;;4960349;28;89247;-36
2022/05/17 10:38:43;;;;;;;8.27;2.45;;;22.90;93.00;;;;;;4961125;28;89335;-38
2022/05/17 10:41:12;;;;;;;7.78;2.38;;;23.20;99.90;;;;;;4960229;28;90324;-36
2022/05/17 10:43:44;;;;;;;3.42;1.67;;;23.20;89.00;;;;;;4959683;28;90665;-40
2022/05/17 10:46:19;;;;;;;6.47;2.67;;;23.40;94.80;;;;;;4959484;28;90749;-35
2022/05/17 10:49:08;;;;;;;6.95;2.42;;;23.20;79.80;;;;;;4961201;28;90240;-36
2022/05/17 10:52:09;;;;;;;5.65;2.63;;;23.30;94.50;;;;;;4960585;28;90135;-39
2022/05/17 10:54:40;;;;;;;8.80;2.90;;;23.50;97.70;;;;;;4958025;28;89604;-40
2022/05/17 10:57:24;;;;;;;3.70;2.28;;;23.60;79.20;;;;;;4958085;28;89451;-37
2022/05/17 10:59:52;;;;;;;5.00;2.55;;;23.40;90.70;;;;;;4958748;28;89366;-37
2022/05/17 11:02:55;;;;;;;4.82;1.60;;;23.50;92.80;;;;;;4959225;28;90675;-38
2022/05/17 11:05:24;;;;;;;9.05;2.42;;;23.20;76.10;;;;;;4957431;28;89584;-37
2022/05/17 11:08:20;;;;;;;5.65;2.45;;;23.10;90.30;;;;;;4957555;28;89489;-37
2022/05/17 11:11:02;;;;;;;6.88;2.42;;;23.00;85.50;;;;;;4957171;28;88341;-36
2022/05/17 11:13:39;;;;;;;3.63;1.70;;;22.80;74.40;;;;;;4958428;28;90369;-36
2022/05/17 11:16:12;;;;;;;4.63;2.10;;;22.80;75.70;;;;;;4958020;28;89361;-37
2022/05/17 11:18:55;;;;;;;2.28;1.88;;;22.50;76.90;;;;;;4958449;28;89517;-39
2022/05/17 11:21:30;;;;;;;3.05;1.92;;;22.80;78.90;;;;;;4957622;28;88421;-37
2022/05/17 11:24:25;;;;;;;7.30;2.40;;;23.10;77.70;;;;;;4957428;28;90350;-37
2022/05/17 11:27:08;;;;;;;2.83;2.08;;;23.00;70.10;;;;;;4920855;28;90635;-37
2022/05/17 11:30:11;;;;;;;9.38;2.30;;;23.10;74.20;;;;;;4957989;28;89799;-37
2022/05/17 11:32:42;;;;;;;5.15;2.35;;;23.40;74.10;;;;;;4957786;28;88357;-36
2022/05/17 11:35:26;;;;;;;4.03;2.60;;;23.40;74.40;;;;;;4957908;28;89759;-35
2022/05/17 11:37:54;;;;;;;5.18;2.63;;;23.60;67.40;;;;;;4956851;28;91089;-38
2022/05/17 11:40:49;;;;;;;3.20;2.17;;;23.80;68.00;;;;;;4957355;28;89867;-40
2022/05/17 11:43:41;;;;;;;12.27;4.18;;;23.70;73.40;;;;;;4958979;28;89581;-37
2022/05/17 11:46:28;;;;;;;6.50;3.20;;;23.70;74.70;;;;;;4957761;28;90169;-40
2022/05/17 11:48:53;;;;;;;5.03;2.70;;;23.80;84.80;;;;;;4958044;28;89475;-36
2022/05/17 11:51:21;;;;;;;5.70;2.00;;;23.70;85.00;;;;;;4957682;28;90766;-37
2022/05/17 11:53:52;;;;;;;4.38;2.45;;;23.80;96.00;;;;;;4957831;28;89602;-36
2022/05/17 11:56:32;;;;;;;6.00;2.42;;;23.70;75.60;;;;;;4957639;28;91392;-35
2022/05/17 11:59:01;;;;;;;10.60;3.00;;;23.30;78.90;;;;;;4956027;28;90278;-35
2022/05/17 12:01:26;;;;;;;4.85;2.75;;;23.50;85.50;;;;;;4957624;28;89248;-35
2022/05/17 12:04:26;;;;;;;5.25;3.03;;;23.70;96.40;;;;;;4956794;28;90375;-40
2022/05/17 12:06:52;;;;;;;10.70;4.25;;;23.90;99.90;;;;;;4961234;28;90151;-36
2022/05/17 12:09:20;;;;;;;6.32;3.40;;;23.80;99.90;;;;;;4961495;28;89542;-36
2022/05/17 12:12:12;;;;;;;8.90;4.13;;;23.90;99.90;;;;;;4964440;28;89933;-36
2022/05/17 12:14:50;;;;;;;18.75;5.13;;;23.80;99.90;;;;;;4958725;28;88512;-36
2022/05/17 12:17:25;;;;;;;5.95;3.60;;;23.70;99.90;;;;;;4960264;28;89236;-36
2022/05/17 12:20:18;;;;;;;7.22;4.22;;;23.70;99.90;;;;;;4970110;28;89756;-34
2022/05/17 12:23:05;;;;;;;17.05;3.67;;;23.60;99.90;;;;;;4981979;28;89857;-40
2022/05/17 12:25:57;;;;;;;9.68;3.92;;;23.70;99.90;;;;;;4979429;28;89088;-38
2022/05/17 12:28:34;;;;;;;10.93;4.22;;;23.30;99.90;;;;;;4977699;28;90334;-36
2022/05/17 12:31:01;;;;;;;5.67;3.07;;;23.30;99.90;;;;;;4977420;28;90752;-39
2022/05/17 12:33:31;;;;;;;8.40;3.87;;;23.30;99.90;;;;;;4957983;28;90114;-34
2022/05/17 12:36:26;;;;;;;6.63;3.40;;;23.10;99.90;;;;;;4957589;28;90071;-36
2022/05/17 12:44:51;;;;;;;7.45;3.35;;;23.20;99.90;;;;;;4990555;22;89989;-35
2022/05/17 12:47:41;;;;;;;8.93;3.92;;;22.90;99.90;;;;;;4957755;28;89452;-37
2022/05/17 12:50:15;;;;;;;8.63;3.15;;;22.80;99.90;;;;;;4939324;28;90423;-37
2022/05/17 12:52:41;;;;;;;8.25;3.15;;;22.80;99.90;;;;;;4956877;28;89638;-34
2022/05/17 12:55:28;;;;;;;7.03;4.45;;;23.00;99.90;;;;;;4957310;28;89894;-36
2022/05/17 12:57:55;;;;;;;10.50;4.20;;;22.90;99.90;;;;;;4957007;28;89937;-33
2022/05/17 13:00:23;;;;;;;12.27;4.82;;;22.90;99.90;;;;;;4956907;28;90256;-36
2022/05/17 13:02:55;;;;;;;9.30;5.22;;;23.10;99.90;;;;;;4956684;28;90477;-38
2022/05/17 13:05:40;;;;;;;7.88;4.20;;;23.00;99.90;;;;;;4956924;28;89442;-36
2022/05/17 13:08:07;;;;;;;5.53;3.65;;;22.50;99.90;;;;;;4956714;28;89086;-39
2022/05/17 13:10:34;;;;;;;5.72;3.75;;;22.50;99.90;;;;;;4960304;28;88981;-38
2022/05/17 13:13:12;;;;;;;4.15;2.83;;;22.40;99.90;;;;;;4960487;28;90991;-39